TFS301 KHOU-KLIT
Flight info
| Callsign | TFS301 |
|---|---|
| Flight time | 1h 2m |
| Altitude | 39000 |
| Route | INDIE8 TPAKK LIT |
| Aircraft | A320/M-SDE3FGHIRWY/LB1 |
Departure
| Time | 2026-05-05 02:13 |
|---|---|
| Airport | William P. Hobby Airport (KHOU) |
Arrival
| Time | 2026-05-05 03:16 |
|---|---|
| Airport | Bill & Hillary Clinton National Airport/Adams Field (KLIT) |
| Time | Latitude | Longitude | Altitude | Speed | Heading |
|---|---|---|---|---|---|
| 2026-05-05 02:00 | 29.65259 | -95.27918 | 52 ft | 0 kts | 144° |
| 2026-05-05 02:05 | 29.65261 | -95.27919 | 52 ft | 2 kts | 144° |
| 2026-05-05 02:05 | 29.65283 | -95.27936 | 50 ft | 4 kts | 155° |
| 2026-05-05 02:05 | 29.65307 | -95.27942 | 51 ft | 4 kts | 197° |
| 2026-05-05 02:05 | 29.65322 | -95.27933 | 49 ft | 0 kts | 224° |
| 2026-05-05 02:07 | 29.65322 | -95.27934 | 49 ft | 1 kts | 224° |
| 2026-05-05 02:08 | 29.65275 | -95.27986 | 50 ft | 13 kts | 224° |
| 2026-05-05 02:08 | 29.65244 | -95.28054 | 52 ft | 7 kts | 279° |
| 2026-05-05 02:08 | 29.65281 | -95.28107 | 52 ft | 10 kts | 314° |
| 2026-05-05 02:08 | 29.65327 | -95.28183 | 52 ft | 14 kts | 283° |
| 2026-05-05 02:09 | 29.65303 | -95.28285 | 52 ft | 14 kts | 251° |
| 2026-05-05 02:09 | 29.65245 | -95.28386 | 50 ft | 17 kts | 226° |
| 2026-05-05 02:09 | 29.65223 | -95.28506 | 52 ft | 3 kts | 270° |
| 2026-05-05 02:09 | 29.65223 | -95.28507 | 52 ft | 0 kts | 270° |
| 2026-05-05 02:10 | 29.65223 | -95.28508 | 52 ft | 0 kts | 270° |
| 2026-05-05 02:10 | 29.65223 | -95.28510 | 52 ft | 0 kts | 270° |
| 2026-05-05 02:10 | 29.65223 | -95.28511 | 52 ft | 0 kts | 270° |
| 2026-05-05 02:11 | 29.65223 | -95.28533 | 52 ft | 6 kts | 270° |
| 2026-05-05 02:11 | 29.65223 | -95.28541 | 52 ft | 0 kts | 270° |
| 2026-05-05 02:11 | 29.65205 | -95.28558 | 49 ft | 7 kts | 205° |
| 2026-05-05 02:11 | 29.65146 | -95.28567 | 52 ft | 10 kts | 186° |
| 2026-05-05 02:12 | 29.65084 | -95.28574 | 52 ft | 0 kts | 180° |
| 2026-05-05 02:12 | 29.65062 | -95.28514 | 52 ft | 5 kts | 128° |
| 2026-05-05 02:12 | 29.65058 | -95.28509 | 52 ft | 0 kts | 134° |
| 2026-05-05 02:13 | 29.65033 | -95.28480 | 52 ft | 33 kts | 134° |
| 2026-05-05 02:13 | 29.64665 | -95.28055 | 51 ft | 112 kts | 133° |
| 2026-05-05 02:13 | 29.63983 | -95.27240 | 201 ft | 159 kts | 136° |
| 2026-05-05 02:13 | 29.63247 | -95.26342 | 1138 ft | 152 kts | 136° |
| 2026-05-05 02:14 | 29.62541 | -95.25449 | 2015 ft | 152 kts | 137° |
| 2026-05-05 02:14 | 29.61782 | -95.24490 | 2536 ft | 173 kts | 139° |
| 2026-05-05 02:14 | 29.60918 | -95.23410 | 2972 ft | 197 kts | 138° |
| 2026-05-05 02:14 | 29.59909 | -95.22148 | 3493 ft | 223 kts | 136° |
| 2026-05-05 02:15 | 29.59100 | -95.20500 | 4075 ft | 257 kts | 106° |
| 2026-05-05 02:15 | 29.59234 | -95.18366 | 4769 ft | 283 kts | 68° |
| 2026-05-05 02:15 | 29.60445 | -95.16581 | 5706 ft | 290 kts | 33° |
| 2026-05-05 02:15 | 29.62307 | -95.15783 | 6686 ft | 287 kts | 4° |
| 2026-05-05 02:16 | 29.64292 | -95.15790 | 7675 ft | 286 kts | 351° |
| 2026-05-05 02:16 | 29.66266 | -95.16117 | 8729 ft | 286 kts | 347° |
| 2026-05-05 02:16 | 29.68230 | -95.16512 | 9798 ft | 287 kts | 347° |
| 2026-05-05 02:16 | 29.70240 | -95.16883 | 10505 ft | 302 kts | 348° |
| 2026-05-05 02:17 | 29.72392 | -95.17216 | 11014 ft | 320 kts | 349° |
| 2026-05-05 02:17 | 29.74636 | -95.17492 | 11884 ft | 326 kts | 351° |
| 2026-05-05 02:17 | 29.76908 | -95.17718 | 12811 ft | 329 kts | 352° |
| 2026-05-05 02:17 | 29.79201 | -95.17915 | 13726 ft | 333 kts | 352° |
| 2026-05-05 02:18 | 29.81522 | -95.18102 | 14526 ft | 335 kts | 351° |
| 2026-05-05 02:18 | 29.83851 | -95.18290 | 15317 ft | 337 kts | 351° |
| 2026-05-05 02:18 | 29.86205 | -95.18485 | 16117 ft | 339 kts | 351° |
| 2026-05-05 02:18 | 29.88565 | -95.18685 | 16918 ft | 342 kts | 350° |
| 2026-05-05 02:19 | 29.90945 | -95.18894 | 17715 ft | 344 kts | 350° |
| 2026-05-05 02:19 | 29.93341 | -95.19107 | 18469 ft | 346 kts | 349° |
| 2026-05-05 02:19 | 29.95745 | -95.19328 | 19146 ft | 348 kts | 349° |
| 2026-05-05 02:19 | 29.98171 | -95.19548 | 19824 ft | 350 kts | 349° |
| 2026-05-05 02:20 | 30.00607 | -95.19763 | 20503 ft | 353 kts | 348° |
| 2026-05-05 02:20 | 30.03064 | -95.19975 | 21187 ft | 355 kts | 348° |
| 2026-05-05 02:20 | 30.05542 | -95.20189 | 21849 ft | 358 kts | 348° |
| 2026-05-05 02:20 | 30.08032 | -95.20404 | 22505 ft | 360 kts | 347° |
| 2026-05-05 02:21 | 30.10535 | -95.20621 | 23149 ft | 363 kts | 347° |
| 2026-05-05 02:21 | 30.13065 | -95.20842 | 23741 ft | 365 kts | 347° |
| 2026-05-05 02:21 | 30.15603 | -95.21065 | 24264 ft | 367 kts | 347° |
| 2026-05-05 02:21 | 30.18162 | -95.21289 | 24782 ft | 370 kts | 347° |
| 2026-05-05 02:22 | 30.20733 | -95.21512 | 25291 ft | 372 kts | 347° |
| 2026-05-05 02:22 | 30.23325 | -95.21740 | 25796 ft | 374 kts | 347° |
| 2026-05-05 02:22 | 30.25924 | -95.21970 | 26296 ft | 377 kts | 347° |
| 2026-05-05 02:22 | 30.28579 | -95.22000 | 26775 ft | 389 kts | 355° |
| 2026-05-05 02:23 | 30.31288 | -95.21428 | 27306 ft | 405 kts | 6° |
| 2026-05-05 02:23 | 30.33986 | -95.20399 | 27805 ft | 410 kts | 8° |
| 2026-05-05 02:23 | 30.36706 | -95.19336 | 28285 ft | 413 kts | 8° |
| 2026-05-05 02:23 | 30.39433 | -95.18265 | 28760 ft | 415 kts | 8° |
| 2026-05-05 02:24 | 30.42176 | -95.17187 | 29215 ft | 418 kts | 7° |
| 2026-05-05 02:24 | 30.44923 | -95.16042 | 29664 ft | 427 kts | 12° |
| 2026-05-05 02:24 | 30.47618 | -95.14472 | 30085 ft | 437 kts | 17° |
| 2026-05-05 02:24 | 30.50313 | -95.12813 | 30444 ft | 440 kts | 17° |
| 2026-05-05 02:25 | 30.53029 | -95.11134 | 30793 ft | 443 kts | 17° |
| 2026-05-05 02:25 | 30.54830 | -95.10019 | 31016 ft | 444 kts | 17° |
| 2026-05-05 02:25 | 30.58491 | -95.07745 | 31481 ft | 448 kts | 17° |
| 2026-05-05 02:25 | 30.60314 | -95.06610 | 31702 ft | 450 kts | 17° |
| 2026-05-05 02:26 | 30.63037 | -95.04886 | 32137 ft | 451 kts | 17° |
| 2026-05-05 02:26 | 30.65782 | -95.03116 | 32616 ft | 451 kts | 17° |
| 2026-05-05 02:26 | 30.68516 | -95.01338 | 33084 ft | 450 kts | 17° |
| 2026-05-05 02:26 | 30.71243 | -94.99560 | 33551 ft | 450 kts | 17° |
| 2026-05-05 02:27 | 30.73975 | -94.97783 | 33940 ft | 449 kts | 17° |
| 2026-05-05 02:27 | 30.76703 | -94.96013 | 34427 ft | 448 kts | 17° |
| 2026-05-05 02:27 | 30.79376 | -94.94284 | 34851 ft | 446 kts | 17° |
| 2026-05-05 02:27 | 30.82064 | -94.92547 | 35303 ft | 444 kts | 17° |
| 2026-05-05 02:28 | 30.84761 | -94.90806 | 35716 ft | 442 kts | 16° |
| 2026-05-05 02:28 | 30.87448 | -94.89071 | 36149 ft | 441 kts | 16° |
| 2026-05-05 02:28 | 30.90121 | -94.87348 | 36572 ft | 438 kts | 15° |
| 2026-05-05 02:28 | 30.92787 | -94.85630 | 36952 ft | 437 kts | 15° |
| 2026-05-05 02:29 | 30.95442 | -94.83919 | 37316 ft | 436 kts | 15° |
| 2026-05-05 02:29 | 30.98091 | -94.82209 | 37666 ft | 435 kts | 15° |
| 2026-05-05 02:29 | 31.00735 | -94.80500 | 38021 ft | 434 kts | 15° |
| 2026-05-05 02:29 | 31.03375 | -94.78789 | 38377 ft | 433 kts | 15° |
| 2026-05-05 02:30 | 31.06007 | -94.77079 | 38692 ft | 433 kts | 15° |
| 2026-05-05 02:30 | 31.08635 | -94.75371 | 38877 ft | 433 kts | 15° |
| 2026-05-05 02:30 | 31.11271 | -94.73657 | 38922 ft | 434 kts | 15° |
| 2026-05-05 02:31 | 31.16545 | -94.70223 | 38955 ft | 434 kts | 15° |
| 2026-05-05 02:31 | 31.21790 | -94.66811 | 38919 ft | 434 kts | 15° |
| 2026-05-05 02:32 | 31.27070 | -94.63369 | 38922 ft | 435 kts | 15° |
| 2026-05-05 02:32 | 31.32351 | -94.59917 | 38918 ft | 434 kts | 15° |
| 2026-05-05 02:33 | 31.37626 | -94.56467 | 38922 ft | 434 kts | 15° |
| 2026-05-05 02:33 | 31.42894 | -94.53019 | 38931 ft | 434 kts | 15° |
| 2026-05-05 02:34 | 31.48156 | -94.49565 | 38939 ft | 433 kts | 15° |
| 2026-05-05 02:34 | 31.53396 | -94.46020 | 38931 ft | 436 kts | 16° |
| 2026-05-05 02:35 | 31.58598 | -94.42360 | 38924 ft | 437 kts | 17° |
| 2026-05-05 02:35 | 31.63805 | -94.38686 | 38921 ft | 436 kts | 16° |
| 2026-05-05 02:36 | 31.69014 | -94.35044 | 38909 ft | 436 kts | 16° |
| 2026-05-05 02:36 | 31.74229 | -94.31415 | 38928 ft | 436 kts | 16° |
| 2026-05-05 02:37 | 31.79440 | -94.27778 | 38910 ft | 436 kts | 16° |
| 2026-05-05 02:37 | 31.84651 | -94.24128 | 38909 ft | 436 kts | 16° |
| 2026-05-05 02:38 | 31.89870 | -94.20462 | 38893 ft | 437 kts | 16° |
| 2026-05-05 02:38 | 31.95082 | -94.16787 | 38915 ft | 437 kts | 16° |
| 2026-05-05 02:39 | 32.00292 | -94.13122 | 38911 ft | 436 kts | 16° |
| 2026-05-05 02:39 | 32.05506 | -94.09452 | 38924 ft | 436 kts | 16° |
| 2026-05-05 02:40 | 32.10715 | -94.05783 | 38913 ft | 436 kts | 16° |
| 2026-05-05 02:40 | 32.15925 | -94.02108 | 38901 ft | 436 kts | 16° |
| 2026-05-05 02:41 | 32.21140 | -93.98421 | 38897 ft | 437 kts | 16° |
| 2026-05-05 02:41 | 32.26346 | -93.94723 | 38887 ft | 437 kts | 16° |
| 2026-05-05 02:42 | 32.31553 | -93.91027 | 38925 ft | 437 kts | 15° |
| 2026-05-05 02:42 | 32.36756 | -93.87340 | 38909 ft | 436 kts | 15° |
| 2026-05-05 02:43 | 32.41966 | -93.83637 | 38907 ft | 436 kts | 16° |
| 2026-05-05 02:43 | 32.47170 | -93.79926 | 38906 ft | 436 kts | 16° |
| 2026-05-05 02:44 | 32.52344 | -93.76232 | 38906 ft | 436 kts | 16° |
| 2026-05-05 02:44 | 32.57532 | -93.72529 | 38944 ft | 435 kts | 15° |
| 2026-05-05 02:45 | 32.62688 | -93.68837 | 38899 ft | 432 kts | 15° |
| 2026-05-05 02:45 | 32.67797 | -93.65181 | 38890 ft | 432 kts | 15° |
| 2026-05-05 02:46 | 32.72978 | -93.61469 | 38885 ft | 432 kts | 15° |
| 2026-05-05 02:46 | 32.78094 | -93.57799 | 38889 ft | 432 kts | 15° |
| 2026-05-05 02:47 | 32.83246 | -93.54097 | 38887 ft | 433 kts | 15° |
| 2026-05-05 02:47 | 32.88397 | -93.50389 | 38920 ft | 433 kts | 15° |
| 2026-05-05 02:48 | 32.93554 | -93.46665 | 38909 ft | 433 kts | 15° |
| 2026-05-05 02:48 | 32.98708 | -93.42939 | 38899 ft | 433 kts | 15° |
| 2026-05-05 02:49 | 33.03882 | -93.39289 | 38891 ft | 431 kts | 14° |
| 2026-05-05 02:49 | 33.09083 | -93.35769 | 38883 ft | 430 kts | 13° |
| 2026-05-05 02:50 | 33.14294 | -93.32251 | 38911 ft | 430 kts | 14° |
| 2026-05-05 02:50 | 33.19489 | -93.28698 | 38904 ft | 431 kts | 14° |
| 2026-05-05 02:51 | 33.24685 | -93.25121 | 38891 ft | 431 kts | 14° |
| 2026-05-05 02:51 | 33.29878 | -93.21539 | 38889 ft | 431 kts | 14° |
| 2026-05-05 02:51 | 33.32481 | -93.19740 | 38700 ft | 432 kts | 14° |
| 2026-05-05 02:52 | 33.35077 | -93.17944 | 38462 ft | 431 kts | 14° |
| 2026-05-05 02:52 | 33.37670 | -93.16152 | 38184 ft | 430 kts | 14° |
| 2026-05-05 02:52 | 33.40258 | -93.14366 | 37914 ft | 430 kts | 14° |
| 2026-05-05 02:52 | 33.42853 | -93.12574 | 37646 ft | 429 kts | 14° |
| 2026-05-05 02:53 | 33.45424 | -93.10791 | 37212 ft | 425 kts | 14° |
| 2026-05-05 02:53 | 33.47968 | -93.09021 | 36706 ft | 421 kts | 14° |
| 2026-05-05 02:53 | 33.50496 | -93.07264 | 36202 ft | 418 kts | 14° |
| 2026-05-05 02:53 | 33.52966 | -93.05548 | 35708 ft | 415 kts | 14° |
| 2026-05-05 02:54 | 33.55456 | -93.03820 | 35183 ft | 413 kts | 14° |
| 2026-05-05 02:54 | 33.57971 | -93.02080 | 34649 ft | 411 kts | 14° |
| 2026-05-05 02:54 | 33.60437 | -93.00373 | 34120 ft | 408 kts | 14° |
| 2026-05-05 02:54 | 33.62858 | -92.98695 | 33561 ft | 407 kts | 15° |
| 2026-05-05 02:55 | 33.65297 | -92.96999 | 33057 ft | 403 kts | 15° |
| 2026-05-05 02:55 | 33.67713 | -92.95315 | 32510 ft | 400 kts | 15° |
| 2026-05-05 02:55 | 33.70108 | -92.93643 | 32001 ft | 397 kts | 15° |
| 2026-05-05 02:55 | 33.72490 | -92.91978 | 31500 ft | 394 kts | 15° |
| 2026-05-05 02:56 | 33.74853 | -92.90328 | 30998 ft | 391 kts | 15° |
| 2026-05-05 02:56 | 33.77196 | -92.88693 | 30521 ft | 388 kts | 16° |
| 2026-05-05 02:56 | 33.79523 | -92.87070 | 30042 ft | 385 kts | 16° |
| 2026-05-05 02:56 | 33.81832 | -92.85458 | 29524 ft | 382 kts | 16° |
| 2026-05-05 02:57 | 33.84116 | -92.83861 | 29062 ft | 377 kts | 16° |
| 2026-05-05 02:57 | 33.86398 | -92.82265 | 28614 ft | 372 kts | 17° |
| 2026-05-05 02:57 | 33.88622 | -92.80711 | 28187 ft | 368 kts | 17° |
| 2026-05-05 02:57 | 33.90827 | -92.79169 | 27753 ft | 364 kts | 17° |
| 2026-05-05 02:58 | 33.92978 | -92.77662 | 27364 ft | 361 kts | 18° |
| 2026-05-05 02:58 | 33.95142 | -92.76143 | 26894 ft | 359 kts | 18° |
| 2026-05-05 02:58 | 33.97292 | -92.74635 | 26458 ft | 356 kts | 19° |
| 2026-05-05 02:58 | 33.99430 | -92.73137 | 26026 ft | 354 kts | 19° |
| 2026-05-05 02:59 | 34.01552 | -92.71652 | 25567 ft | 353 kts | 19° |
| 2026-05-05 02:59 | 34.03672 | -92.70166 | 25118 ft | 352 kts | 20° |
| 2026-05-05 02:59 | 34.05784 | -92.68682 | 24652 ft | 352 kts | 21° |
| 2026-05-05 02:59 | 34.07895 | -92.67199 | 24179 ft | 351 kts | 21° |
| 2026-05-05 03:00 | 34.10011 | -92.65714 | 23704 ft | 352 kts | 22° |
| 2026-05-05 03:00 | 34.12122 | -92.64230 | 23159 ft | 352 kts | 23° |
| 2026-05-05 03:00 | 34.14236 | -92.62738 | 22670 ft | 350 kts | 23° |
| 2026-05-05 03:00 | 34.16333 | -92.61254 | 22192 ft | 348 kts | 23° |
| 2026-05-05 03:01 | 34.18421 | -92.59775 | 21723 ft | 347 kts | 23° |
| 2026-05-05 03:01 | 34.20494 | -92.58311 | 21262 ft | 346 kts | 23° |
| 2026-05-05 03:01 | 34.22568 | -92.56847 | 20801 ft | 345 kts | 23° |
| 2026-05-05 03:01 | 34.24642 | -92.55387 | 20340 ft | 344 kts | 24° |
| 2026-05-05 03:02 | 34.26703 | -92.53934 | 19880 ft | 343 kts | 24° |
| 2026-05-05 03:02 | 34.28760 | -92.52480 | 19434 ft | 343 kts | 24° |
| 2026-05-05 03:02 | 34.30819 | -92.51021 | 18978 ft | 343 kts | 24° |
| 2026-05-05 03:02 | 34.32875 | -92.49562 | 18529 ft | 343 kts | 24° |
| 2026-05-05 03:03 | 34.34931 | -92.48104 | 18079 ft | 342 kts | 25° |
| 2026-05-05 03:03 | 34.36969 | -92.46655 | 17709 ft | 338 kts | 25° |
| 2026-05-05 03:03 | 34.38993 | -92.45216 | 17274 ft | 337 kts | 25° |
| 2026-05-05 03:03 | 34.41012 | -92.43780 | 16842 ft | 335 kts | 25° |
| 2026-05-05 03:04 | 34.43017 | -92.42354 | 16416 ft | 334 kts | 25° |
| 2026-05-05 03:04 | 34.45024 | -92.40929 | 15991 ft | 334 kts | 25° |
| 2026-05-05 03:04 | 34.47024 | -92.39510 | 15575 ft | 333 kts | 25° |
| 2026-05-05 03:04 | 34.49026 | -92.38088 | 15152 ft | 333 kts | 25° |
| 2026-05-05 03:05 | 34.51023 | -92.36666 | 14732 ft | 333 kts | 26° |
| 2026-05-05 03:05 | 34.53013 | -92.35246 | 14315 ft | 332 kts | 26° |
| 2026-05-05 03:05 | 34.55004 | -92.33823 | 13889 ft | 332 kts | 26° |
| 2026-05-05 03:05 | 34.56994 | -92.32403 | 13443 ft | 331 kts | 26° |
| 2026-05-05 03:06 | 34.58976 | -92.30987 | 13003 ft | 330 kts | 26° |
| 2026-05-05 03:06 | 34.60944 | -92.29581 | 12575 ft | 328 kts | 26° |
| 2026-05-05 03:06 | 34.62893 | -92.28150 | 12148 ft | 328 kts | 31° |
| 2026-05-05 03:06 | 34.64481 | -92.26162 | 11561 ft | 330 kts | 55° |
| 2026-05-05 03:07 | 34.65508 | -92.23695 | 10955 ft | 324 kts | 63° |
| 2026-05-05 03:07 | 34.66417 | -92.21220 | 10357 ft | 318 kts | 63° |
| 2026-05-05 03:07 | 34.67303 | -92.18789 | 9769 ft | 312 kts | 63° |
| 2026-05-05 03:07 | 34.68177 | -92.16398 | 9130 ft | 307 kts | 64° |
| 2026-05-05 03:08 | 34.69044 | -92.14056 | 8500 ft | 301 kts | 64° |
| 2026-05-05 03:08 | 34.69906 | -92.11759 | 7874 ft | 296 kts | 64° |
| 2026-05-05 03:08 | 34.70755 | -92.09535 | 7277 ft | 292 kts | 64° |
| 2026-05-05 03:08 | 34.71616 | -92.07325 | 6677 ft | 287 kts | 63° |
| 2026-05-05 03:09 | 34.72473 | -92.05155 | 6089 ft | 282 kts | 63° |
| 2026-05-05 03:09 | 34.73534 | -92.03189 | 5471 ft | 277 kts | 44° |
| 2026-05-05 03:09 | 34.75089 | -92.01870 | 4845 ft | 271 kts | 20° |
| 2026-05-05 03:09 | 34.76891 | -92.01388 | 4230 ft | 263 kts | 355° |
| 2026-05-05 03:10 | 34.78674 | -92.01678 | 3604 ft | 258 kts | 343° |
| 2026-05-05 03:10 | 34.80436 | -92.02101 | 2991 ft | 259 kts | 344° |
| 2026-05-05 03:10 | 34.82194 | -92.02524 | 2587 ft | 252 kts | 343° |
| 2026-05-05 03:10 | 34.83662 | -92.03423 | 2497 ft | 224 kts | 304° |
| 2026-05-05 03:11 | 34.84170 | -92.04455 | 2500 ft | 200 kts | 278° |
| 2026-05-05 03:11 | 34.84198 | -92.05991 | 2506 ft | 171 kts | 246° |
| 2026-05-05 03:11 | 34.83634 | -92.07165 | 2530 ft | 151 kts | 222° |
| 2026-05-05 03:11 | 34.82946 | -92.08035 | 2518 ft | 135 kts | 221° |
| 2026-05-05 03:12 | 34.82319 | -92.08842 | 2516 ft | 128 kts | 222° |
| 2026-05-05 03:12 | 34.81714 | -92.09620 | 2517 ft | 125 kts | 222° |
| 2026-05-05 03:12 | 34.81119 | -92.10382 | 2538 ft | 124 kts | 222° |
| 2026-05-05 03:12 | 34.80522 | -92.11146 | 2383 ft | 124 kts | 221° |
| 2026-05-05 03:13 | 34.79931 | -92.11902 | 2171 ft | 123 kts | 221° |
| 2026-05-05 03:13 | 34.79346 | -92.12650 | 1964 ft | 123 kts | 221° |
| 2026-05-05 03:13 | 34.78753 | -92.13407 | 1803 ft | 122 kts | 221° |
| 2026-05-05 03:13 | 34.78168 | -92.14156 | 1646 ft | 122 kts | 220° |
| 2026-05-05 03:14 | 34.77593 | -92.14893 | 1462 ft | 122 kts | 222° |
| 2026-05-05 03:14 | 34.76997 | -92.15655 | 1304 ft | 123 kts | 221° |
| 2026-05-05 03:14 | 34.76407 | -92.16409 | 1140 ft | 123 kts | 223° |
| 2026-05-05 03:14 | 34.75819 | -92.17160 | 981 ft | 123 kts | 224° |
| 2026-05-05 03:15 | 34.75228 | -92.17915 | 813 ft | 124 kts | 224° |
| 2026-05-05 03:15 | 34.74645 | -92.18665 | 643 ft | 122 kts | 224° |
| 2026-05-05 03:15 | 34.74060 | -92.19416 | 472 ft | 122 kts | 225° |
| 2026-05-05 03:15 | 34.73477 | -92.20164 | 318 ft | 122 kts | 224° |
| 2026-05-05 03:16 | 34.72921 | -92.20868 | 262 ft | 100 kts | 226° |
| 2026-05-05 03:16 | 34.72563 | -92.21321 | 263 ft | 50 kts | 226° |
| 2026-05-05 03:16 | 34.72425 | -92.21590 | 264 ft | 31 kts | 255° |
| 2026-05-05 03:16 | 34.72431 | -92.21690 | 266 ft | 0 kts | 317° |
| 2026-05-05 03:17 | 34.72458 | -92.21703 | 266 ft | 10 kts | 3° |
| 2026-05-05 03:17 | 34.72508 | -92.21651 | 267 ft | 9 kts | 44° |
| 2026-05-05 03:17 | 34.72552 | -92.21594 | 267 ft | 9 kts | 50° |
| 2026-05-05 03:18 | 34.72596 | -92.21538 | 267 ft | 12 kts | 46° |
| 2026-05-05 03:18 | 34.72678 | -92.21434 | 267 ft | 16 kts | 46° |
| 2026-05-05 03:18 | 34.72754 | -92.21337 | 267 ft | 15 kts | 46° |
| 2026-05-05 03:18 | 34.72821 | -92.21253 | 266 ft | 12 kts | 46° |
| 2026-05-05 03:19 | 34.72926 | -92.21292 | 267 ft | 9 kts | 291° |
| 2026-05-05 03:19 | 34.72949 | -92.21365 | 267 ft | 9 kts | 291° |
| 2026-05-05 03:19 | 34.72975 | -92.21436 | 267 ft | 13 kts | 296° |
| 2026-05-05 03:20 | 34.73027 | -92.21573 | 267 ft | 18 kts | 294° |
| 2026-05-05 03:20 | 34.73067 | -92.21684 | 270 ft | 9 kts | 294° |
| 2026-05-05 03:20 | 34.73095 | -92.21758 | 267 ft | 15 kts | 303° |
| 2026-05-05 03:20 | 34.73166 | -92.21835 | 267 ft | 11 kts | 299° |
| 2026-05-05 03:21 | 34.73195 | -92.21921 | 267 ft | 11 kts | 290° |
| 2026-05-05 03:21 | 34.73220 | -92.22004 | 267 ft | 10 kts | 290° |
| 2026-05-05 03:21 | 34.73196 | -92.22067 | 267 ft | 9 kts | 206° |
| 2026-05-05 03:21 | 34.73127 | -92.22097 | 267 ft | 12 kts | 200° |
| 2026-05-05 03:22 | 34.73108 | -92.22096 | 267 ft | 1 kts | 115° |
| 2026-05-05 03:22 | 34.73104 | -92.22066 | 267 ft | 2 kts | 102° |
| 2026-05-05 03:22 | 34.73099 | -92.22047 | 267 ft | 2 kts | 109° |
| 2026-05-05 03:22 | 34.73079 | -92.22031 | 267 ft | 9 kts | 140° |
| 2026-05-05 03:23 | 34.73073 | -92.22023 | 267 ft | 0 kts | 137° |